createdAt,value
2018-12-20T00:00:11.725Z,31.80
2018-12-20T00:02:41.727Z,28.70
2018-12-20T00:05:11.605Z,28.53
2018-12-20T00:07:41.571Z,25.57
2018-12-20T00:10:11.511Z,24.07
2018-12-20T00:12:41.400Z,24.10
2018-12-20T00:15:11.399Z,28.87
2018-12-20T00:17:45.298Z,29.90
2018-12-20T00:20:15.196Z,28.73
2018-12-20T00:22:45.337Z,24.73
2018-12-20T00:25:15.376Z,28.77
2018-12-20T00:27:45.457Z,36.57
2018-12-20T00:30:15.461Z,27.13
2018-12-20T00:32:46.157Z,24.23
2018-12-20T00:35:16.159Z,27.83
2018-12-20T00:37:47.591Z,25.67
2018-12-20T00:40:17.693Z,24.67
2018-12-20T00:42:47.661Z,24.10
2018-12-20T00:45:17.759Z,26.73
2018-12-20T00:47:47.569Z,25.20
2018-12-20T00:50:17.494Z,25.87
2018-12-20T00:52:47.463Z,27.40
2018-12-20T00:55:17.388Z,23.77
2018-12-20T00:57:47.711Z,27.43
2018-12-20T01:00:19.555Z,27.40
2018-12-20T01:02:55.192Z,21.13
2018-12-20T01:05:21.443Z,25.57
2018-12-20T01:07:51.567Z,22.67
2018-12-20T01:10:21.662Z,23.67
2018-12-20T01:12:51.573Z,26.07
2018-12-20T01:15:21.468Z,26.67
2018-12-20T01:17:51.602Z,25.67
2018-12-20T01:20:21.592Z,32.40
2018-12-20T01:22:51.482Z,25.03
2018-12-20T01:25:21.503Z,27.13
2018-12-20T01:27:51.518Z,26.03
2018-12-20T01:30:21.323Z,22.33
2018-12-20T01:32:51.216Z,24.10
2018-12-20T01:35:21.195Z,21.43
2018-12-20T01:37:51.220Z,25.87
2018-12-20T01:40:21.354Z,32.90
2018-12-20T01:42:51.399Z,25.10
2018-12-20T01:45:21.408Z,22.77
2018-12-20T01:47:51.482Z,23.70
2018-12-20T01:50:21.473Z,24.00
2018-12-20T01:52:51.520Z,24.13
2018-12-20T01:55:21.635Z,24.30
2018-12-20T01:57:51.702Z,23.17
2018-12-20T02:00:21.951Z,23.13
2018-12-20T02:02:52.055Z,23.17
2018-12-20T02:05:21.884Z,24.33
2018-12-20T02:07:52.132Z,25.27
2018-12-20T02:10:22.341Z,22.03
2018-12-20T02:12:52.363Z,20.87
2018-12-20T02:15:22.329Z,23.87
2018-12-20T02:17:52.445Z,23.33
2018-12-20T02:20:22.616Z,22.47
2018-12-20T02:22:52.588Z,22.30
2018-12-20T02:25:22.692Z,21.13
2018-12-20T02:27:52.860Z,23.43
2018-12-20T02:30:22.835Z,21.90
2018-12-20T02:32:53.022Z,22.90
2018-12-20T02:35:23.134Z,22.43
2018-12-20T02:37:53.158Z,21.97
2018-12-20T02:40:23.120Z,23.93
2018-12-20T02:42:53.165Z,22.50
2018-12-20T02:45:23.210Z,23.47
2018-12-20T02:47:53.280Z,21.27
2018-12-20T02:50:23.283Z,22.17
2018-12-20T02:52:53.333Z,21.20
2018-12-20T02:55:23.383Z,19.87
2018-12-20T02:57:53.399Z,23.57
2018-12-20T03:00:23.625Z,21.73
2018-12-20T03:02:53.705Z,21.13
2018-12-20T03:05:23.798Z,25.47
2018-12-20T03:07:53.982Z,22.67
2018-12-20T03:10:23.938Z,23.20
2018-12-20T03:12:54.031Z,21.60
2018-12-20T03:15:24.021Z,20.87
2018-12-20T03:17:54.145Z,19.53
2018-12-20T03:20:24.347Z,20.57
2018-12-20T03:22:54.590Z,22.23
2018-12-20T03:25:24.936Z,20.87
2018-12-20T03:27:54.936Z,21.53
2018-12-20T03:30:25.164Z,22.37
2018-12-20T03:32:55.537Z,26.43
2018-12-20T03:35:25.582Z,21.80
2018-12-20T03:37:55.481Z,20.30
2018-12-20T03:40:25.403Z,23.57
2018-12-20T03:42:55.484Z,21.47
2018-12-20T03:45:29.082Z,20.90
2018-12-20T03:47:58.138Z,19.93
2018-12-20T03:50:28.197Z,19.37
2018-12-20T03:52:58.203Z,21.67
2018-12-20T03:55:28.260Z,22.33
2018-12-20T03:57:58.491Z,20.53
2018-12-20T04:00:28.447Z,23.03
2018-12-20T04:02:58.733Z,19.80
2018-12-20T04:05:28.719Z,20.37
2018-12-20T04:07:58.902Z,21.47
2018-12-20T04:10:29.055Z,19.60
2018-12-20T04:12:59.064Z,20.23
2018-12-20T04:15:37.598Z,20.47
2018-12-20T04:18:00.950Z,22.40
2018-12-20T04:20:30.907Z,19.87
2018-12-20T04:23:00.855Z,19.77
2018-12-20T04:25:30.824Z,19.63
2018-12-20T04:28:00.803Z,18.97
2018-12-20T04:30:30.828Z,19.77
2018-12-20T04:33:01.000Z,17.80
2018-12-20T04:35:31.062Z,20.27
2018-12-20T04:38:01.104Z,18.87
2018-12-20T04:40:31.040Z,18.60
2018-12-20T04:43:01.175Z,16.07
2018-12-20T04:45:31.112Z,18.83
2018-12-20T04:48:01.318Z,17.60
2018-12-20T04:50:31.259Z,17.10
2018-12-20T04:53:01.537Z,16.60
2018-12-20T04:55:31.586Z,18.70
2018-12-20T04:58:02.811Z,20.27
2018-12-20T05:00:33.100Z,16.90
2018-12-20T05:03:03.214Z,14.87
2018-12-20T05:05:33.435Z,15.27
2018-12-20T05:08:03.584Z,18.37
2018-12-20T05:10:33.858Z,17.17
2018-12-20T05:13:03.883Z,15.67
2018-12-20T05:15:36.721Z,17.10
2018-12-20T05:18:06.757Z,18.23
2018-12-20T05:20:36.888Z,20.83
2018-12-20T05:25:47.481Z,23.90
2018-12-20T05:28:17.826Z,22.13
2018-12-20T05:30:47.975Z,29.80
2018-12-20T05:33:17.932Z,25.87
2018-12-20T05:35:48.088Z,29.50
2018-12-20T05:38:18.114Z,30.23
2018-12-20T05:40:48.212Z,27.93
2018-12-20T05:43:18.295Z,26.40
2018-12-20T05:45:48.283Z,31.47
2018-12-20T05:48:18.596Z,28.90
2018-12-20T05:50:48.582Z,25.20
2018-12-20T05:53:18.470Z,24.77
2018-12-20T05:55:48.488Z,18.83
2018-12-20T05:58:18.481Z,24.70
2018-12-20T06:00:48.455Z,24.67
2018-12-20T06:03:18.392Z,22.20
2018-12-20T06:05:48.531Z,25.23
2018-12-20T06:08:18.458Z,22.33
2018-12-20T06:10:48.472Z,22.73
2018-12-20T06:13:18.541Z,19.90
2018-12-20T06:15:48.548Z,27.33
2018-12-20T06:18:18.512Z,23.33
2018-12-20T06:20:48.500Z,17.77
2018-12-20T06:23:19.115Z,22.57
2018-12-20T06:25:49.224Z,24.60
2018-12-20T06:28:19.361Z,25.83
2018-12-20T06:30:49.485Z,17.73
2018-12-20T06:33:19.566Z,18.63
2018-12-20T06:35:49.671Z,14.47
2018-12-20T06:38:19.823Z,22.57
2018-12-20T06:40:49.877Z,19.77
2018-12-20T06:43:19.925Z,20.53
2018-12-20T06:45:50.252Z,14.90
2018-12-20T06:48:20.304Z,17.70
2018-12-20T06:50:50.318Z,17.77
2018-12-20T06:53:20.423Z,15.57
2018-12-20T06:55:50.453Z,16.80
2018-12-20T06:58:20.652Z,21.03
2018-12-20T07:00:50.781Z,15.83
2018-12-20T07:03:20.770Z,18.87
2018-12-20T07:05:50.812Z,15.50
2018-12-20T07:08:20.775Z,14.57
2018-12-20T07:10:50.984Z,17.00
2018-12-20T07:13:20.945Z,19.07
2018-12-20T07:15:51.284Z,16.27
2018-12-20T07:18:21.573Z,14.80
2018-12-20T07:20:51.605Z,16.73
2018-12-20T07:23:21.641Z,15.63
2018-12-20T07:25:51.651Z,14.70
2018-12-20T07:28:21.586Z,14.80
2018-12-20T07:30:51.776Z,16.57
2018-12-20T07:33:21.910Z,13.93
2018-12-20T07:35:52.016Z,15.77
2018-12-20T07:38:22.015Z,12.67
2018-12-20T07:40:52.037Z,15.40
2018-12-20T07:43:22.256Z,15.53
2018-12-20T07:45:52.296Z,14.83
2018-12-20T07:48:22.426Z,15.67
2018-12-20T07:50:52.544Z,13.83
2018-12-20T07:53:22.555Z,15.47
2018-12-20T07:55:52.559Z,14.23
2018-12-20T07:58:22.783Z,14.30
2018-12-20T08:00:52.792Z,13.27
2018-12-20T08:03:22.854Z,15.80
2018-12-20T08:05:52.849Z,16.50
2018-12-20T08:08:23.140Z,14.63
2018-12-20T08:10:53.178Z,12.20
2018-12-20T08:13:23.245Z,13.80
2018-12-20T08:15:53.203Z,15.00
2018-12-20T08:18:23.450Z,12.43
2018-12-20T08:20:53.777Z,13.80
2018-12-20T08:23:23.746Z,18.27
2018-12-20T08:25:53.887Z,14.77
2018-12-20T08:28:23.981Z,15.10
2018-12-20T08:30:54.120Z,12.93
2018-12-20T08:33:24.345Z,15.90
2018-12-20T08:35:54.642Z,15.93
2018-12-20T08:38:24.662Z,15.00
2018-12-20T08:40:54.568Z,12.93
2018-12-20T08:43:24.540Z,18.37
2018-12-20T08:45:54.524Z,14.57
2018-12-20T08:48:24.507Z,14.57
2018-12-20T08:50:54.467Z,13.97
2018-12-20T08:53:24.658Z,17.60
2018-12-20T08:55:54.586Z,13.87
2018-12-20T08:58:24.725Z,14.17
2018-12-20T09:00:54.625Z,13.87
2018-12-20T09:03:24.915Z,14.87
2018-12-20T09:05:54.818Z,13.40
2018-12-20T09:08:25.513Z,15.27
2018-12-20T09:10:55.441Z,14.93
2018-12-20T09:13:25.444Z,13.20
2018-12-20T09:15:55.409Z,15.07
2018-12-20T09:18:25.344Z,16.50
2018-12-20T09:20:55.750Z,14.40
2018-12-20T09:23:26.092Z,15.87
2018-12-20T09:25:56.025Z,16.10
2018-12-20T09:28:26.083Z,16.63
2018-12-20T09:30:56.098Z,14.13
2018-12-20T09:33:26.023Z,17.03
2018-12-20T09:35:56.071Z,17.83
2018-12-20T09:38:26.042Z,19.10
2018-12-20T09:40:56.006Z,17.17
2018-12-20T09:43:27.655Z,17.57
2018-12-20T09:45:57.632Z,16.17
2018-12-20T09:48:27.574Z,13.77
2018-12-20T09:50:57.583Z,15.10
2018-12-20T09:53:27.463Z,15.77
2018-12-20T09:55:57.482Z,16.00
2018-12-20T09:58:27.474Z,15.07
2018-12-20T10:00:57.737Z,17.10
2018-12-20T10:03:27.664Z,18.33
2018-12-20T10:05:57.714Z,16.43
2018-12-20T10:08:27.684Z,15.27
2018-12-20T10:10:58.188Z,14.50
2018-12-20T10:13:28.155Z,15.63
2018-12-20T10:15:58.090Z,16.63
2018-12-20T10:18:28.096Z,14.13
2018-12-20T10:20:58.033Z,14.67
2018-12-20T10:23:28.040Z,16.83
2018-12-20T10:25:58.007Z,14.43
2018-12-20T10:28:28.006Z,15.80
2018-12-20T10:30:57.964Z,15.40
2018-12-20T10:33:27.954Z,14.67
2018-12-20T10:35:57.924Z,16.43
2018-12-20T10:38:27.876Z,16.53
2018-12-20T10:40:57.864Z,18.50
2018-12-20T10:43:27.960Z,17.67
2018-12-20T10:45:58.089Z,21.23
2018-12-20T10:48:28.064Z,20.13
2018-12-20T10:50:58.055Z,17.83
2018-12-20T10:53:27.999Z,19.30
2018-12-20T10:55:58.004Z,20.73
2018-12-20T10:58:28.004Z,23.40
2018-12-20T11:01:01.904Z,20.40
2018-12-20T11:03:35.890Z,24.60
2018-12-20T11:06:10.504Z,19.93
2018-12-20T11:08:44.524Z,19.97
2018-12-20T11:11:18.415Z,21.60
2018-12-20T11:13:48.415Z,25.80
2018-12-20T11:16:18.515Z,26.47
2018-12-20T11:18:48.466Z,22.33
2018-12-20T11:21:18.472Z,23.17
2018-12-20T11:23:48.595Z,20.27
2018-12-20T11:26:18.554Z,20.63
2018-12-20T11:28:48.526Z,20.07
2018-12-20T11:31:18.515Z,20.43
2018-12-20T11:33:48.575Z,19.97
2018-12-20T11:36:18.555Z,21.37
2018-12-20T11:38:48.605Z,18.97
2018-12-20T11:41:18.606Z,21.47
2018-12-20T11:43:48.585Z,20.23
2018-12-20T11:46:18.565Z,22.40
2018-12-20T11:48:48.535Z,17.33
2018-12-20T11:51:18.573Z,20.83
2018-12-20T11:53:48.554Z,20.90
2018-12-20T11:56:18.522Z,18.37
2018-12-20T11:58:48.574Z,20.53
2018-12-20T12:01:18.495Z,20.23
2018-12-20T12:03:57.216Z,22.37
2018-12-20T12:06:20.781Z,21.30
2018-12-20T12:08:50.823Z,19.30
2018-12-20T12:11:20.700Z,20.23
2018-12-20T12:13:50.665Z,19.60
2018-12-20T12:16:20.587Z,21.00
2018-12-20T12:18:50.776Z,18.90
2018-12-20T12:21:20.695Z,20.30
2018-12-20T12:23:50.715Z,19.53
2018-12-20T12:26:20.610Z,20.27
2018-12-20T12:28:50.631Z,20.27
2018-12-20T12:31:20.586Z,23.30
2018-12-20T12:33:50.497Z,21.63
2018-12-20T12:36:20.473Z,21.27
2018-12-20T12:38:50.567Z,22.60
2018-12-20T12:41:20.508Z,21.87
2018-12-20T12:43:50.994Z,19.20
2018-12-20T12:46:21.277Z,22.20
2018-12-20T12:48:51.140Z,22.13
2018-12-20T12:51:21.178Z,19.37
2018-12-20T12:53:51.094Z,23.53
2018-12-20T12:56:21.138Z,20.67
2018-12-20T12:58:51.099Z,22.60
2018-12-20T13:01:21.139Z,24.00
2018-12-20T13:03:51.083Z,22.90
2018-12-20T13:06:21.090Z,21.33
2018-12-20T13:08:51.292Z,19.63
2018-12-20T13:11:21.375Z,21.50
2018-12-20T13:13:51.431Z,22.10
2018-12-20T13:16:21.372Z,24.23
2018-12-20T13:18:51.304Z,26.57
2018-12-20T13:21:21.306Z,22.07
2018-12-20T13:23:51.342Z,23.17
2018-12-20T13:26:21.399Z,22.13
2018-12-20T13:28:51.366Z,21.97
2018-12-20T13:31:21.424Z,23.67
2018-12-20T13:33:51.437Z,23.63
2018-12-20T13:36:21.374Z,23.40
2018-12-20T13:38:51.455Z,23.10
2018-12-20T13:41:21.398Z,22.43
2018-12-20T13:43:51.376Z,24.87
2018-12-20T13:46:21.333Z,25.93
2018-12-20T13:48:51.368Z,24.47
2018-12-20T13:51:21.284Z,24.60
2018-12-20T13:53:51.306Z,23.20
2018-12-20T13:56:21.324Z,26.67
2018-12-20T13:58:51.283Z,25.23
2018-12-20T14:01:21.235Z,26.20
2018-12-20T14:03:51.163Z,26.17
2018-12-20T14:06:21.184Z,24.17
2018-12-20T14:08:51.174Z,28.10
2018-12-20T14:11:21.305Z,25.20
2018-12-20T14:13:51.365Z,29.10
2018-12-20T14:16:21.288Z,29.30
2018-12-20T14:18:51.203Z,29.67
2018-12-20T14:21:21.168Z,31.13
2018-12-20T14:23:51.140Z,27.87
2018-12-20T14:26:21.167Z,27.57
2018-12-20T14:28:51.097Z,26.87
2018-12-20T14:31:20.989Z,32.33
2018-12-20T14:33:50.992Z,28.53
2018-12-20T14:36:21.001Z,27.00
2018-12-20T14:38:50.940Z,31.57
2018-12-20T14:41:20.930Z,29.77
2018-12-20T14:43:50.929Z,27.47
2018-12-20T14:46:20.889Z,34.90
2018-12-20T14:48:50.982Z,34.00
2018-12-20T14:51:21.023Z,36.53
2018-12-20T14:53:51.008Z,39.93
2018-12-20T14:56:20.953Z,35.87
2018-12-20T14:58:50.929Z,33.13
2018-12-20T15:01:21.253Z,35.80
2018-12-20T15:03:51.171Z,36.20
2018-12-20T15:06:21.086Z,39.67
2018-12-20T15:08:51.210Z,96.77
2018-12-20T15:11:21.154Z,166.23
2018-12-20T15:13:51.648Z,184.37
2018-12-20T15:16:21.787Z,204.00
2018-12-20T15:18:51.806Z,200.97
2018-12-20T15:21:21.994Z,182.67
2018-12-20T15:23:51.956Z,188.60
2018-12-20T15:26:23.476Z,188.60
2018-12-20T15:28:53.465Z,164.23
2018-12-20T15:31:23.615Z,160.60
2018-12-20T15:33:53.615Z,148.90
2018-12-20T15:36:23.631Z,128.27
2018-12-20T15:38:53.579Z,128.17
2018-12-20T15:41:23.556Z,121.43
2018-12-20T15:43:53.639Z,106.73
2018-12-20T15:46:23.590Z,117.20
2018-12-20T15:48:57.498Z,114.63
2018-12-20T15:51:27.509Z,115.63
2018-12-20T15:53:57.884Z,108.40
2018-12-20T15:56:27.985Z,109.60
2018-12-20T15:58:58.038Z,94.33
2018-12-20T16:01:28.182Z,92.37
2018-12-20T16:03:58.201Z,101.53
2018-12-20T16:06:28.107Z,87.70
2018-12-20T16:08:58.056Z,92.43
2018-12-20T16:11:28.825Z,90.53
2018-12-20T16:13:58.845Z,90.20
2018-12-20T16:16:28.886Z,91.57
2018-12-20T16:19:04.924Z,85.07
2018-12-20T16:21:30.788Z,85.53
2018-12-20T16:24:00.861Z,77.80
2018-12-20T16:26:30.916Z,84.63
2018-12-20T16:29:00.935Z,84.63
2018-12-20T16:31:31.123Z,81.33
2018-12-20T16:34:01.070Z,84.50
2018-12-20T16:36:31.054Z,79.10
2018-12-20T16:39:01.020Z,76.00
2018-12-20T16:41:31.090Z,80.60
2018-12-20T16:44:01.164Z,78.00
2018-12-20T16:46:31.053Z,80.63
2018-12-20T16:49:01.171Z,76.07
2018-12-20T16:51:31.151Z,76.93
2018-12-20T16:54:01.095Z,75.40
2018-12-20T16:56:30.988Z,75.67
2018-12-20T16:59:00.991Z,74.20
2018-12-20T17:01:31.311Z,81.27
2018-12-20T17:04:01.246Z,68.83
2018-12-20T17:06:31.264Z,79.73
2018-12-20T17:09:01.362Z,71.17
2018-12-20T17:11:31.378Z,71.47
2018-12-20T17:14:01.368Z,74.27
2018-12-20T17:16:31.359Z,67.30
2018-12-20T17:19:01.313Z,69.93
2018-12-20T17:21:31.408Z,64.40
2018-12-20T17:24:01.305Z,65.80
2018-12-20T17:26:31.368Z,67.20
2018-12-20T17:29:01.335Z,65.27
2018-12-20T17:31:31.488Z,65.30
2018-12-20T17:34:01.869Z,69.97
2018-12-20T17:36:31.972Z,59.97
2018-12-20T17:39:01.873Z,73.40
2018-12-20T17:41:31.834Z,60.27
2018-12-20T17:44:01.815Z,69.07
2018-12-20T17:46:31.756Z,59.00
2018-12-20T17:49:01.881Z,65.20
2018-12-20T17:51:31.930Z,61.53
2018-12-20T17:54:01.941Z,65.13
2018-12-20T17:56:33.817Z,59.60
2018-12-20T17:59:03.935Z,63.80
2018-12-20T18:01:33.928Z,64.77
2018-12-20T18:04:04.051Z,62.73
2018-12-20T18:06:34.038Z,60.03
2018-12-20T18:09:05.745Z,61.20
2018-12-20T18:14:24.290Z,56.47
2018-12-20T18:16:54.398Z,57.53
2018-12-20T18:19:24.445Z,56.80
2018-12-20T18:21:54.428Z,61.80
2018-12-20T18:24:24.422Z,56.00
2018-12-20T18:26:54.475Z,55.13
2018-12-20T18:29:24.493Z,56.53
2018-12-20T18:31:57.559Z,52.30
2018-12-20T18:34:27.886Z,53.77
2018-12-20T18:36:57.975Z,55.63
2018-12-20T18:39:27.982Z,51.57
2018-12-20T18:41:58.034Z,57.13
2018-12-20T18:44:28.083Z,47.37
2018-12-20T18:46:59.134Z,54.00
2018-12-20T18:49:29.852Z,52.20
2018-12-20T18:52:04.141Z,55.67
2018-12-20T18:54:34.109Z,53.30
2018-12-20T18:57:04.254Z,52.40
2018-12-20T18:59:34.369Z,53.00
2018-12-20T19:02:04.648Z,53.27
2018-12-20T19:04:35.728Z,48.90
2018-12-20T19:07:05.763Z,50.53
2018-12-20T19:09:35.789Z,49.37
2018-12-20T19:15:21.684Z,73.93
2018-12-20T19:17:51.457Z,96.20
2018-12-20T19:20:24.326Z,115.50
2018-12-20T19:22:54.083Z,129.63
2018-12-20T19:28:04.771Z,60.40
2018-12-20T19:30:34.757Z,57.97
2018-12-20T19:33:05.060Z,58.40
2018-12-20T19:35:35.027Z,51.93
2018-12-20T19:38:05.096Z,49.50
2018-12-20T19:40:45.813Z,53.67
2018-12-20T19:43:25.771Z,55.28
2018-12-20T19:46:31.473Z,53.90
2018-12-20T19:49:01.724Z,51.47
2018-12-20T19:51:35.914Z,49.87
2018-12-20T19:54:06.323Z,59.50
2018-12-20T19:56:37.063Z,55.60
2018-12-20T19:59:10.342Z,55.63
2018-12-20T20:01:45.303Z,55.87
2018-12-20T20:04:16.255Z,56.77
2018-12-20T20:06:48.135Z,57.17
2018-12-20T20:09:18.431Z,59.87
2018-12-20T20:11:48.455Z,61.17
2018-12-20T20:14:19.281Z,61.70
2018-12-20T20:16:53.353Z,59.80
2018-12-20T20:19:27.569Z,52.40
2018-12-20T20:21:57.824Z,45.63
2018-12-20T20:24:29.070Z,52.57
2018-12-20T20:27:06.100Z,46.57
2018-12-20T20:29:36.484Z,47.53
2018-12-20T20:32:07.814Z,49.03
2018-12-20T20:34:41.173Z,42.70
2018-12-20T20:37:11.314Z,48.80
2018-12-20T20:39:43.650Z,55.20
2018-12-20T20:42:14.995Z,49.17
2018-12-20T20:44:49.270Z,46.63
2018-12-20T20:47:27.070Z,48.63
2018-12-20T20:50:01.006Z,47.07
2018-12-20T20:52:31.636Z,45.13
2018-12-20T20:55:02.450Z,46.43
2018-12-20T20:57:33.680Z,44.77
2018-12-20T21:00:04.003Z,44.00
2018-12-20T21:02:37.979Z,44.87
2018-12-20T21:05:13.014Z,48.83
2018-12-20T21:07:43.197Z,50.97
2018-12-20T21:10:13.734Z,47.93
2018-12-20T21:12:44.202Z,49.03
2018-12-20T21:15:15.862Z,48.33
2018-12-20T21:17:45.929Z,45.37
2018-12-20T21:20:16.008Z,47.00
2018-12-20T21:22:46.024Z,47.93
2018-12-20T21:25:16.176Z,48.17
2018-12-20T21:27:46.491Z,49.43
2018-12-20T21:30:16.835Z,46.60
2018-12-20T21:32:47.276Z,46.20
2018-12-20T21:35:17.199Z,46.97
2018-12-20T21:37:47.443Z,50.43
2018-12-20T21:40:18.733Z,46.57
2018-12-20T21:42:48.911Z,45.10
2018-12-20T21:45:18.844Z,44.23
2018-12-20T21:47:51.910Z,44.17
2018-12-20T21:50:22.143Z,49.90
2018-12-20T21:52:52.325Z,48.80
2018-12-20T21:55:22.737Z,46.63
2018-12-20T21:57:52.709Z,45.30
2018-12-20T22:00:22.875Z,41.53
2018-12-20T22:02:54.490Z,47.50
2018-12-20T22:05:24.463Z,42.90
2018-12-20T22:07:54.443Z,44.27
2018-12-20T22:10:24.375Z,43.47
2018-12-20T22:12:54.426Z,47.37
2018-12-20T22:15:24.626Z,44.83
2018-12-20T22:17:55.529Z,44.03
2018-12-20T22:20:25.500Z,46.30
2018-12-20T22:22:55.849Z,47.30
2018-12-20T22:25:25.934Z,40.07
2018-12-20T22:27:56.192Z,48.90
2018-12-20T22:30:27.385Z,50.83
2018-12-20T22:33:05.316Z,135.57
2018-12-20T22:35:40.289Z,99.23
2018-12-20T22:38:12.292Z,93.17
2018-12-20T22:41:59.781Z,90.83
2018-12-20T22:44:29.825Z,81.97
2018-12-20T22:46:59.804Z,77.10
2018-12-20T22:49:29.790Z,82.80
2018-12-20T22:51:59.892Z,79.27
2018-12-20T22:54:32.919Z,67.33
2018-12-20T22:57:03.090Z,67.27
2018-12-20T22:59:32.982Z,68.57
2018-12-20T23:02:02.986Z,67.50
2018-12-20T23:04:33.060Z,69.63
2018-12-20T23:07:03.060Z,61.90
2018-12-20T23:09:33.049Z,65.13
2018-12-20T23:12:03.049Z,62.43
2018-12-20T23:14:33.138Z,54.80
2018-12-20T23:17:03.197Z,60.70
2018-12-20T23:19:33.142Z,57.20
2018-12-20T23:22:03.101Z,59.40
2018-12-20T23:24:33.107Z,56.33
2018-12-20T23:27:03.059Z,49.53
2018-12-20T23:29:33.143Z,58.13
2018-12-20T23:32:03.082Z,54.70
2018-12-20T23:34:33.088Z,52.47
2018-12-20T23:37:03.020Z,51.17
2018-12-20T23:39:36.068Z,46.53
2018-12-20T23:42:05.958Z,52.20
2018-12-20T23:44:35.980Z,46.87
2018-12-20T23:47:05.890Z,47.57
2018-12-20T23:49:35.969Z,45.43
2018-12-20T23:52:05.975Z,49.53
2018-12-20T23:54:36.257Z,46.87
2018-12-20T23:57:06.160Z,49.27
2018-12-20T23:59:36.179Z,46.60
